Phoenix, Arizona
Traffic Map
Current Weather Conditions
Phoenix, Arizona
Clear
Clear
24°
Feels Like: 24°
Wind Chill: 24° Ceiling: Unl
Heat Index: 24° Visibility: 10mi
Dew Point: Wind: 3mph
Humidity: 25% Direction: 130° (SE)
Pressure: 29.86in Gusts: 0mph
Raw Report DataKPHX 040751Z 13003KT 10SM CLR 24/03 A2986 RMK AO2 SLP093 T02390028
Traffic Incident Summary
Active as of:
Severity:
Category:
InformationThere was an issue retrieving the traffic information for this location. Please try a different location or try again shortly.
Advertisements
Track Severe Weather on mobile